Portada
METAR-TAF:

METAR-TAF

Aeroports :

Khartum, Sudan

latitud: 15-36N, longitud: 032-33E, altitud: 382 m

Observació

L'informe es va fer fa 24 minuts, a les 07:00 UTC
Vent 12 kt del Sud-Oest
Temperatura 35°C
Humitat 39%
Pressió 1009 hPa
Visibilitat 10 km o més
sense núvols per sota de 1500 mi sense presència de cumulonimbus.

METAR: HSSS 210700Z 22012KT CAVOK 35/19 Q1009 NOSIG

Hora: 10:24 (07:24 UTC)

Pronòstic

L'informe es va fer fa 2 hores i 24 minuts, a les 05:00 UTC
Pronòstic vàlid del 21 a les 06 UTC al 22 a les 12 UTC
Vent 10 kt del Sud-Oest amb ràfegues de 20 kt
Visibilitat 10 km o més
sense núvols per sota de 1500 mi sense presència de cumulonimbus.
Temporalment
l' 21 a les 06 UTC al 21 a les 10 UTC
Visibilitat: 6000 m

TAF: HSSS 210500Z 2106/2212 22010G20KT CAVOK TEMPO 2106/2110 6000

Observacions i pronòstics meteorològics de més de 4000 aeroports (METAR i TAF).

Les estacions disponibles són els punts grocs i vermells al mapa.

Posi el ratolí al punt desitjat per veure el nom de l'estació.

Feu clic per veure les observacions i els pronòstics meteorològics.

Per canviar el mapa: feu clic els botons verds amb una creu de color negre per apropar; al botó verd amb un guió per allunyar la imatge; o en les fletxes verdes per a mapes adjacents.


METAR-TAF: